Main page
METAR-TAF:

METAR-TAF

Airports :

Ponta Delgada, Azores, Portugal

João Paulo II Airport

latitude: 37-44N, longitude: 025-42W, elevation: 71 m

Current weather observation

The report was made 25 minutes ago, at 16:00 UTC
Wind 7 kt from the West/Southwest
Temperature 19°C
Humidity 73%
Pressure 1031 hPa
Visibility 10 km or more
Few clouds at a height of 2000 ft

METAR: LPPD 251600Z 24007KT 9999 FEW020 19/14 Q1031

Time: 16:25 (16:25 UTC)

Forecast

The report was made 5 hours and 25 minutes ago, at 11:00 UTC
Forecast valid from 25 at 12 UTC to 26 at 12 UTC
Wind 5 kt from variable directions
Visibility 10 km or more
Scattered clouds at a height of 2000 ft
Scattered clouds at a height of 3500 ft
Temporary
from 25 at 12 UTC to 25 at 18 UTC
Wind 8 kt from the Southwest
Broken clouds at a height of 1500 ft

TAF: LPPD 251100Z 2512/2612 VRB05KT 9999 SCT020 SCT035 TEMPO 2512/2518 22008KT BKN015

Weather observations and forecasts of more than 4000 airports (METAR and TAF reports).

The available stations are represented by yellow and red dots on the map.

Hover mouse over dot to see the name of the station.

Then click to see weather observations and forecasts.

To change the map : click on the green buttons with a black cross to zoom in, on the green button with a dash to zoom out, or on the green arrows for adjacent maps.


METAR-TAF: